Time;durP1;ratioP1;P1;durP2;ratioP2;P2;SDS_P1;SDS_P2;PMS_P1;PMS_P2;Temp;Humidity;BMP_temperature;BMP_pressure;BME280_temperature;BME280_humidity;BME280_pressure;Samples;Min_cycle;Max_cycle;Signal;HPM_P1;HPM_P2
2023/07/03 00:00:12;;;;;;;23.48;10.60;;;17.20;99.90;;;;;;5112697;28;20376;-50
2023/07/03 00:02:38;;;;;;;21.80;10.35;;;17.10;99.90;;;;;;5112648;28;20023;-49
2023/07/03 00:05:06;;;;;;;18.98;10.63;;;17.10;99.90;;;;;;5111922;28;20368;-50
2023/07/03 00:07:32;;;;;;;27.02;12.07;;;17.10;99.90;;;;;;5112144;28;20051;-47
2023/07/03 00:09:58;;;;;;;24.13;10.73;;;17.10;99.90;;;;;;5112446;28;20062;-47
2023/07/03 00:12:23;;;;;;;26.17;11.73;;;17.00;99.90;;;;;;5112713;28;20536;-49
2023/07/03 00:14:49;;;;;;;21.73;10.52;;;17.00;99.90;;;;;;5111043;28;20016;-49
2023/07/03 00:17:15;;;;;;;21.80;11.60;;;17.00;99.90;;;;;;5112128;28;20046;-47
2023/07/03 00:19:41;;;;;;;23.92;10.45;;;16.90;99.90;;;;;;5112440;28;20031;-48
2023/07/03 00:22:06;;;;;;;21.88;10.52;;;16.90;99.90;;;;;;5112406;28;20470;-47
2023/07/03 00:24:32;;;;;;;25.17;11.70;;;16.90;99.90;;;;;;5111994;28;20028;-49
2023/07/03 00:26:58;;;;;;;27.58;12.13;;;17.00;99.90;;;;;;5111683;28;20050;-49
2023/07/03 00:29:24;;;;;;;18.98;10.10;;;17.00;99.90;;;;;;5093184;28;20019;-49
2023/07/03 00:31:50;;;;;;;23.25;10.18;;;17.00;99.90;;;;;;5112165;28;20035;-47
2023/07/03 00:34:16;;;;;;;21.42;10.07;;;17.00;99.90;;;;;;5112238;28;20482;-47
2023/07/03 00:36:42;;;;;;;24.40;10.32;;;17.00;99.90;;;;;;5111386;28;20081;-48
2023/07/03 00:39:08;;;;;;;27.33;12.70;;;17.00;99.90;;;;;;5111846;28;20028;-47
2023/07/03 00:41:34;;;;;;;27.67;11.00;;;16.90;99.90;;;;;;5112050;28;20130;-48
2023/07/03 00:44:00;;;;;;;18.38;9.80;;;16.90;99.90;;;;;;5111948;28;20054;-47
2023/07/03 00:46:25;;;;;;;26.15;11.57;;;16.90;99.90;;;;;;5111058;28;20060;-48
2023/07/03 00:48:51;;;;;;;21.65;10.27;;;16.80;99.90;;;;;;5111893;28;20019;-49
2023/07/03 00:51:17;;;;;;;25.27;9.98;;;16.80;99.90;;;;;;5111866;28;20027;-47
2023/07/03 00:53:44;;;;;;;22.92;10.55;;;16.90;99.90;;;;;;5111734;28;20107;-50
2023/07/03 00:56:11;;;;;;;21.45;10.48;;;16.90;99.90;;;;;;5111136;28;20031;-47
2023/07/03 00:58:37;;;;;;;30.98;11.50;;;16.80;99.90;;;;;;5111843;28;20460;-47
2023/07/03 01:01:16;;;;;;;21.88;10.75;;;16.80;99.90;;;;;;5111922;28;20051;-47
2023/07/03 01:03:59;;;;;;;20.30;10.75;;;16.80;99.90;;;;;;5111899;28;20093;-51
2023/07/03 01:06:31;;;;;;;22.63;10.20;;;16.80;99.90;;;;;;5111040;28;20038;-48
2023/07/03 01:08:59;;;;;;;26.63;10.70;;;16.90;99.90;;;;;;5093707;28;20479;-47
2023/07/03 01:11:26;;;;;;;27.20;10.57;;;16.90;99.90;;;;;;5093536;28;20406;-46
2023/07/03 01:13:55;;;;;;;33.63;12.00;;;16.90;99.90;;;;;;5093672;28;20023;-50
2023/07/03 01:16:21;;;;;;;22.17;10.77;;;16.90;99.90;;;;;;5110556;28;20020;-49
2023/07/03 01:18:48;;;;;;;23.63;10.45;;;16.90;99.90;;;;;;5111487;28;20042;-49
2023/07/03 01:21:23;;;;;;;25.13;10.20;;;16.90;99.90;;;;;;5111627;28;20131;-46
2023/07/03 01:24:00;;;;;;;23.95;10.95;;;16.90;99.90;;;;;;5111927;28;20555;-49
2023/07/03 01:26:26;;;;;;;22.13;10.70;;;16.90;99.90;;;;;;5110718;28;20040;-49
2023/07/03 01:28:57;;;;;;;22.13;11.00;;;16.90;99.90;;;;;;5111494;28;20034;-47
2023/07/03 01:31:24;;;;;;;25.60;10.73;;;16.90;99.90;;;;;;5111814;28;20101;-52
2023/07/03 01:33:50;;;;;;;29.42;11.55;;;16.90;99.90;;;;;;5111607;28;20035;-47
2023/07/03 01:36:17;;;;;;;19.45;9.68;;;16.90;99.90;;;;;;5110802;28;20023;-50
2023/07/03 01:38:45;;;;;;;27.92;10.38;;;17.00;99.90;;;;;;5111600;28;20241;-47
2023/07/03 01:41:13;;;;;;;22.98;9.88;;;17.10;99.90;;;;;;5114773;28;20069;-47
2023/07/03 01:43:40;;;;;;;19.20;9.63;;;17.00;99.90;;;;;;5097018;28;20395;-47
2023/07/03 01:46:07;;;;;;;24.23;10.52;;;17.10;99.90;;;;;;5114579;28;20111;-49
2023/07/03 01:48:34;;;;;;;28.33;10.45;;;17.10;99.90;;;;;;5115139;28;20039;-50
2023/07/03 01:51:03;;;;;;;20.88;9.98;;;17.20;99.90;;;;;;5114997;28;20058;-47
2023/07/03 01:53:32;;;;;;;22.70;10.85;;;17.20;99.90;;;;;;5115140;28;20023;-47
2023/07/03 01:56:12;;;;;;;20.02;10.55;;;17.20;99.90;;;;;;5114698;28;20031;-50
2023/07/03 01:58:50;;;;;;;29.45;10.90;;;17.30;99.90;;;;;;5115165;28;20024;-48
2023/07/03 02:01:24;;;;;;;23.20;10.63;;;17.30;99.90;;;;;;5114981;28;20039;-47
2023/07/03 02:04:01;;;;;;;22.70;10.02;;;17.30;99.90;;;;;;5114905;28;20103;-46
2023/07/03 02:06:33;;;;;;;19.58;10.55;;;17.40;99.90;;;;;;5095936;28;20483;-47
2023/07/03 02:09:00;;;;;;;21.85;11.13;;;17.30;99.90;;;;;;5114845;28;20085;-50
2023/07/03 02:11:27;;;;;;;23.20;9.90;;;17.40;99.90;;;;;;5114796;28;20038;-50
2023/07/03 02:13:53;;;;;;;21.55;10.02;;;17.40;99.90;;;;;;5114767;28;20069;-48
2023/07/03 02:16:18;;;;;;;21.45;9.95;;;17.40;99.90;;;;;;5094685;28;20027;-47
2023/07/03 02:18:46;;;;;;;21.10;10.50;;;17.40;99.90;;;;;;5114647;28;20042;-53
2023/07/03 02:21:12;;;;;;;17.83;9.82;;;17.30;99.90;;;;;;5114763;28;20024;-47
2023/07/03 02:23:37;;;;;;;27.08;10.80;;;17.30;99.90;;;;;;5114990;28;20119;-47
2023/07/03 02:26:03;;;;;;;19.73;9.55;;;17.30;99.90;;;;;;5095619;28;20067;-47
2023/07/03 02:28:28;;;;;;;25.02;10.48;;;17.30;99.90;;;;;;5114627;28;20023;-49
2023/07/03 02:30:54;;;;;;;18.63;10.32;;;17.40;99.90;;;;;;5114586;28;20372;-48
2023/07/03 02:33:19;;;;;;;24.92;10.38;;;17.30;99.90;;;;;;5114374;28;20023;-48
2023/07/03 02:35:45;;;;;;;26.08;10.85;;;17.30;99.90;;;;;;5113572;28;20047;-49
2023/07/03 02:38:11;;;;;;;19.27;10.23;;;17.30;99.90;;;;;;5114245;28;20024;-50
2023/07/03 02:40:37;;;;;;;18.83;10.80;;;17.30;99.90;;;;;;5114243;28;20038;-47
2023/07/03 02:43:03;;;;;;;21.65;10.45;;;17.30;99.90;;;;;;5114236;28;20016;-52
2023/07/03 02:45:38;;;;;;;17.98;9.90;;;17.30;99.90;;;;;;5113498;28;20027;-51
2023/07/03 02:48:04;;;;;;;22.45;9.57;;;17.20;99.90;;;;;;5114069;28;20063;-50
2023/07/03 02:50:29;;;;;;;17.63;10.48;;;17.30;99.90;;;;;;5113730;28;20031;-52
2023/07/03 02:52:55;;;;;;;22.48;11.35;;;17.20;99.90;;;;;;5113287;28;20387;-49
2023/07/03 02:55:20;;;;;;;23.35;10.45;;;17.20;99.90;;;;;;5113252;28;20443;-47
2023/07/03 02:57:46;;;;;;;22.73;10.85;;;17.20;99.90;;;;;;5113815;28;20024;-50
2023/07/03 03:00:13;;;;;;;20.30;10.75;;;17.10;99.90;;;;;;5114027;28;20103;-46
2023/07/03 03:02:38;;;;;;;22.50;10.25;;;17.10;99.90;;;;;;5114041;28;20023;-48
2023/07/03 03:05:05;;;;;;;26.00;10.90;;;17.10;99.90;;;;;;5113317;28;20020;-50
2023/07/03 03:07:30;;;;;;;21.75;11.32;;;17.10;99.90;;;;;;5113317;28;20024;-48
2023/07/03 03:09:56;;;;;;;20.08;9.85;;;17.10;99.90;;;;;;5113805;28;20052;-48
2023/07/03 03:12:21;;;;;;;23.67;10.80;;;17.10;99.90;;;;;;5113693;28;20054;-48
2023/07/03 03:14:47;;;;;;;32.35;11.65;;;17.10;99.90;;;;;;5112076;28;20016;-47
2023/07/03 03:17:12;;;;;;;22.50;10.27;;;17.10;99.90;;;;;;5113005;28;20043;-50
2023/07/03 03:19:38;;;;;;;23.25;9.80;;;17.10;99.90;;;;;;5113493;28;20515;-47
2023/07/03 03:22:03;;;;;;;23.95;10.85;;;17.20;99.90;;;;;;5113516;28;20518;-47
2023/07/03 03:24:29;;;;;;;22.48;9.88;;;17.10;99.90;;;;;;5113396;28;20019;-48
2023/07/03 03:26:54;;;;;;;23.25;10.50;;;17.10;99.90;;;;;;5112838;28;20098;-50
2023/07/03 03:29:20;;;;;;;22.90;10.02;;;17.10;99.90;;;;;;5113294;28;20023;-47
2023/07/03 03:31:45;;;;;;;26.15;11.18;;;17.10;99.90;;;;;;5113263;28;20076;-50
2023/07/03 03:34:12;;;;;;;17.27;10.02;;;17.10;99.90;;;;;;5094892;28;20024;-50
2023/07/03 03:36:38;;;;;;;16.77;9.70;;;17.10;99.90;;;;;;5112358;28;20024;-49
2023/07/03 03:39:05;;;;;;;17.60;8.88;;;17.10;99.90;;;;;;5112987;28;20028;-50
2023/07/03 03:41:30;;;;;;;27.48;10.52;;;17.10;99.90;;;;;;5094713;28;20114;-48
2023/07/03 03:43:56;;;;;;;20.60;9.75;;;17.10;99.90;;;;;;5113186;28;20056;-48
2023/07/03 03:46:21;;;;;;;26.63;10.82;;;17.10;99.90;;;;;;5112095;28;20076;-51
2023/07/03 03:48:47;;;;;;;22.77;10.73;;;17.10;99.90;;;;;;5112787;28;20019;-49
2023/07/03 03:51:12;;;;;;;23.33;10.05;;;17.10;99.90;;;;;;5112806;28;20015;-47
2023/07/03 03:53:39;;;;;;;25.30;10.68;;;17.20;99.90;;;;;;5112819;28;20483;-47
2023/07/03 03:56:04;;;;;;;24.60;10.75;;;17.30;99.90;;;;;;5093744;28;20019;-47
2023/07/03 03:58:30;;;;;;;22.50;10.07;;;17.20;99.90;;;;;;5112684;28;20084;-47
2023/07/03 04:00:56;;;;;;;27.10;10.85;;;17.20;99.90;;;;;;5112682;28;20111;-49
2023/07/03 04:03:22;;;;;;;27.55;11.35;;;17.20;99.90;;;;;;5112507;28;20027;-47
2023/07/03 04:05:47;;;;;;;26.73;11.13;;;17.20;99.90;;;;;;5111843;28;20431;-47
2023/07/03 04:08:13;;;;;;;17.00;9.27;;;17.20;99.90;;;;;;5112404;28;20106;-48
2023/07/03 04:10:40;;;;;;;20.52;10.20;;;17.10;99.90;;;;;;5112557;28;20479;-50
2023/07/03 04:13:08;;;;;;;19.83;8.65;;;17.10;99.90;;;;;;5112460;28;20020;-47
2023/07/03 04:15:35;;;;;;;23.30;9.82;;;17.00;99.90;;;;;;5092258;28;20030;-48
2023/07/03 04:18:01;;;;;;;21.33;9.15;;;17.10;99.90;;;;;;5112228;28;20464;-47
2023/07/03 04:20:27;;;;;;;19.85;9.18;;;17.10;99.90;;;;;;5112231;28;20019;-50
2023/07/03 04:22:53;;;;;;;22.02;9.07;;;17.00;99.90;;;;;;5112327;28;20098;-47
2023/07/03 04:25:19;;;;;;;24.63;9.95;;;17.00;99.90;;;;;;5111395;28;20047;-48
2023/07/03 04:27:44;;;;;;;18.90;10.18;;;17.00;99.90;;;;;;5093973;28;20015;-46
2023/07/03 04:30:11;;;;;;;22.27;10.13;;;17.20;99.90;;;;;;5112231;28;20015;-49
2023/07/03 04:32:36;;;;;;;18.50;8.77;;;17.00;99.90;;;;;;5112004;28;20506;-47
2023/07/03 04:35:03;;;;;;;19.50;8.38;;;17.10;99.90;;;;;;5111581;28;20028;-52
2023/07/03 04:37:29;;;;;;;27.13;10.05;;;17.00;99.90;;;;;;5111665;28;20034;-52
2023/07/03 04:39:56;;;;;;;26.35;10.18;;;17.00;99.90;;;;;;5112142;28;20023;-47
2023/07/03 04:42:22;;;;;;;20.77;9.55;;;17.00;99.90;;;;;;5112014;28;20110;-50
2023/07/03 04:44:48;;;;;;;21.95;10.02;;;17.00;99.90;;;;;;5092985;28;20027;-47
2023/07/03 04:47:18;;;;;;;26.58;9.90;;;17.00;99.90;;;;;;5111436;28;20019;-50
2023/07/03 04:49:45;;;;;;;20.50;9.50;;;17.00;99.90;;;;;;5111963;28;20024;-47
2023/07/03 04:52:11;;;;;;;22.38;9.00;;;17.00;99.90;;;;;;5111953;28;20015;-48
2023/07/03 04:54:37;;;;;;;24.80;9.35;;;17.00;99.90;;;;;;5111546;28;20030;-52
2023/07/03 04:57:03;;;;;;;19.95;9.10;;;17.00;99.90;;;;;;5111333;28;20028;-49
2023/07/03 04:59:28;;;;;;;24.45;9.82;;;17.00;99.90;;;;;;5111838;28;20138;-47
2023/07/03 05:01:54;;;;;;;22.95;9.23;;;17.00;99.90;;;;;;5111775;28;20028;-50
2023/07/03 05:04:19;;;;;;;21.85;10.25;;;17.00;99.90;;;;;;5093546;28;20027;-50
2023/07/03 05:06:46;;;;;;;18.55;8.93;;;17.10;99.90;;;;;;5110749;28;20395;-47
2023/07/03 05:09:11;;;;;;;20.60;9.98;;;17.10;99.90;;;;;;5093414;28;20023;-46
2023/07/03 05:11:37;;;;;;;20.35;8.63;;;17.10;99.90;;;;;;5111737;28;20028;-46
2023/07/03 05:14:02;;;;;;;19.85;8.63;;;17.10;99.90;;;;;;5110745;28;20016;-49
2023/07/03 05:16:28;;;;;;;20.48;8.40;;;17.10;99.90;;;;;;5114843;28;20051;-49
2023/07/03 05:18:53;;;;;;;24.23;9.88;;;17.10;99.90;;;;;;5134651;22;20132;-43
2023/07/03 05:21:19;;;;;;;33.70;9.93;;;17.20;99.90;;;;;;5115780;28;20497;-48
2023/07/03 05:23:44;;;;;;;19.20;8.38;;;17.30;99.90;;;;;;5115575;28;20020;-45
2023/07/03 05:26:10;;;;;;;24.52;8.70;;;17.30;99.90;;;;;;5114938;28;20084;-50
2023/07/03 05:28:37;;;;;;;23.00;8.38;;;17.30;99.90;;;;;;5115549;28;20103;-46
2023/07/03 05:31:02;;;;;;;22.98;9.38;;;17.40;99.90;;;;;;5115508;28;20430;-46
2023/07/03 05:33:29;;;;;;;23.52;8.52;;;17.40;99.90;;;;;;5115829;28;20063;-45
2023/07/03 05:35:59;;;;;;;25.10;9.15;;;17.40;99.90;;;;;;5114705;28;20032;-43
2023/07/03 05:38:25;;;;;;;18.48;8.65;;;17.20;99.90;;;;;;5115120;28;20016;-47
2023/07/03 05:40:50;;;;;;;20.00;8.65;;;17.50;99.90;;;;;;5115638;28;20490;-42
2023/07/03 05:43:16;;;;;;;18.33;7.80;;;17.50;99.90;;;;;;5115362;28;20034;-49
2023/07/03 05:45:42;;;;;;;19.92;7.50;;;17.50;99.90;;;;;;5114497;28;20031;-51
2023/07/03 05:48:08;;;;;;;21.30;8.52;;;17.50;99.90;;;;;;5115080;28;20030;-44
2023/07/03 05:50:33;;;;;;;24.05;7.70;;;17.50;99.90;;;;;;5115260;28;20047;-46
2023/07/03 05:52:59;;;;;;;24.20;7.95;;;17.60;99.90;;;;;;5096691;28;20447;-39
2023/07/03 05:55:24;;;;;;;21.23;7.03;;;17.60;99.90;;;;;;5114218;28;20027;-45
2023/07/03 05:57:50;;;;;;;23.67;6.85;;;17.60;99.90;;;;;;5114864;28;20027;-44
2023/07/03 06:00:16;;;;;;;32.33;8.65;;;17.50;99.90;;;;;;5115630;28;20030;-44
2023/07/03 06:02:43;;;;;;;27.15;7.68;;;17.50;99.90;;;;;;5114739;28;20024;-43
2023/07/03 06:05:11;;;;;;;24.88;8.52;;;17.50;99.90;;;;;;5096220;28;20102;-45
2023/07/03 06:07:37;;;;;;;19.00;6.28;;;17.50;99.90;;;;;;5114462;28;20030;-43
2023/07/03 06:10:03;;;;;;;23.17;6.50;;;17.50;99.90;;;;;;5096355;28;20027;-47
2023/07/03 06:12:29;;;;;;;19.35;6.22;;;17.50;99.90;;;;;;5115032;28;20449;-45
2023/07/03 06:15:00;;;;;;;15.32;6.60;;;17.60;99.90;;;;;;5113087;28;20058;-48
2023/07/03 06:17:27;;;;;;;13.05;5.93;;;17.60;99.90;;;;;;5113995;28;20024;-44
2023/07/03 06:19:53;;;;;;;17.98;6.63;;;17.60;99.90;;;;;;5114655;28;20390;-48
2023/07/03 06:22:19;;;;;;;16.75;7.13;;;17.60;99.90;;;;;;5114547;28;20030;-48
2023/07/03 06:24:45;;;;;;;14.98;5.40;;;17.70;99.90;;;;;;5113987;28;20492;-43
2023/07/03 06:27:11;;;;;;;20.15;6.18;;;17.70;99.90;;;;;;5112832;28;20036;-44
2023/07/03 06:29:37;;;;;;;18.38;5.53;;;17.60;99.90;;;;;;5114408;28;20028;-45
2023/07/03 06:32:03;;;;;;;19.70;6.03;;;17.70;99.90;;;;;;5114502;28;20410;-45
2023/07/03 06:34:28;;;;;;;17.33;6.10;;;17.60;99.90;;;;;;5113908;28;20387;-41
2023/07/03 06:36:54;;;;;;;13.38;4.68;;;17.60;99.90;;;;;;5113775;28;20050;-43
2023/07/03 06:39:19;;;;;;;17.70;5.40;;;17.60;99.90;;;;;;5113997;28;20046;-45
2023/07/03 06:41:45;;;;;;;19.70;5.03;;;17.70;99.90;;;;;;5114151;28;20023;-45
2023/07/03 06:44:14;;;;;;;16.52;5.03;;;17.70;99.90;;;;;;5114670;28;20207;-44
2023/07/03 06:46:40;;;;;;;17.85;4.75;;;17.70;99.90;;;;;;5113375;28;20034;-44
2023/07/03 06:49:05;;;;;;;11.65;4.00;;;17.70;99.90;;;;;;5113973;28;20024;-46
2023/07/03 06:51:31;;;;;;;12.48;4.78;;;17.60;99.90;;;;;;5095597;28;20394;-47
2023/07/03 06:53:56;;;;;;;15.32;4.35;;;17.70;99.90;;;;;;5095901;28;20024;-48
2023/07/03 06:56:22;;;;;;;12.82;5.57;;;17.80;99.90;;;;;;5113627;28;20030;-46
2023/07/03 06:58:49;;;;;;;11.95;4.53;;;17.80;99.70;;;;;;5114373;28;20020;-44
2023/07/03 07:01:16;;;;;;;15.80;4.93;;;17.90;99.80;;;;;;5114300;28;20078;-50
2023/07/03 07:03:42;;;;;;;22.02;5.18;;;18.00;99.80;;;;;;5113907;28;20055;-49
2023/07/03 07:06:11;;;;;;;19.77;5.50;;;18.00;99.70;;;;;;5112846;28;20070;-45
2023/07/03 07:08:37;;;;;;;13.48;4.32;;;18.00;99.40;;;;;;5113764;28;20047;-47
2023/07/03 07:11:06;;;;;;;20.48;4.82;;;18.20;99.00;;;;;;5113868;28;20020;-44
2023/07/03 07:13:32;;;;;;;16.67;4.10;;;18.30;99.10;;;;;;5113861;28;20440;-49
2023/07/03 07:15:57;;;;;;;17.45;4.43;;;18.40;98.70;;;;;;5111639;28;20106;-45
2023/07/03 07:18:23;;;;;;;17.23;4.22;;;18.50;98.30;;;;;;5113447;28;20043;-43
2023/07/03 07:20:48;;;;;;;15.32;4.57;;;18.50;98.20;;;;;;5095654;28;20019;-47
2023/07/03 07:23:14;;;;;;;18.48;5.25;;;18.60;98.10;;;;;;5113397;28;20032;-45
2023/07/03 07:25:39;;;;;;;17.33;5.38;;;18.80;97.70;;;;;;5112700;28;20047;-49
2023/07/03 07:28:05;;;;;;;16.50;4.20;;;19.10;97.40;;;;;;5113225;28;20015;-48
2023/07/03 07:30:31;;;;;;;13.57;4.07;;;19.50;97.10;;;;;;5113252;28;20016;-49
2023/07/03 07:32:57;;;;;;;18.40;4.20;;;19.70;96.80;;;;;;5112983;28;20016;-46
2023/07/03 07:35:23;;;;;;;14.40;3.83;;;19.80;96.00;;;;;;5112406;28;20027;-45
2023/07/03 07:37:48;;;;;;;15.00;5.07;;;19.70;96.20;;;;;;5112808;28;20060;-47
2023/07/03 07:40:16;;;;;;;12.13;4.32;;;20.20;95.70;;;;;;5113053;28;20095;-46
2023/07/03 07:42:41;;;;;;;14.35;3.97;;;20.50;94.80;;;;;;5112876;28;20024;-47
2023/07/03 07:45:07;;;;;;;9.48;3.50;;;20.80;94.40;;;;;;5112988;28;20095;-45
2023/07/03 07:47:32;;;;;;;13.32;3.75;;;21.00;93.50;;;;;;5112450;28;20031;-46
2023/07/03 07:49:58;;;;;;;21.52;5.18;;;20.90;93.10;;;;;;5095007;28;20031;-45
2023/07/03 07:52:25;;;;;;;14.20;3.83;;;20.50;93.30;;;;;;5112997;28;20540;-47
2023/07/03 07:54:57;;;;;;;13.93;3.55;;;20.40;93.50;;;;;;5112522;28;20069;-48
2023/07/03 07:57:25;;;;;;;9.02;3.17;;;21.20;93.50;;;;;;5112361;28;20032;-46
2023/07/03 07:59:50;;;;;;;7.30;3.20;;;22.00;91.30;;;;;;5112822;28;20230;-45
2023/07/03 08:02:16;;;;;;;8.45;3.10;;;22.40;89.80;;;;;;5107568;28;20046;-45
2023/07/03 08:04:43;;;;;;;7.30;3.00;;;23.50;87.70;;;;;;5101857;28;20044;-45
2023/07/03 08:07:08;;;;;;;10.35;2.90;;;24.40;84.50;;;;;;5111669;28;20582;-48
2023/07/03 08:09:34;;;;;;;7.57;2.72;;;24.60;82.60;;;;;;5095070;28;20115;-44
2023/07/03 08:12:03;;;;;;;9.07;2.67;;;24.20;81.20;;;;;;5110452;28;20030;-46
2023/07/03 08:14:28;;;;;;;6.60;2.72;;;23.60;81.10;;;;;;5111892;28;20024;-46
2023/07/03 08:16:54;;;;;;;7.93;2.20;;;23.50;81.00;;;;;;5092243;28;20505;-44
2023/07/03 08:19:20;;;;;;;8.52;3.42;;;23.50;82.00;;;;;;5109089;27;20453;-44
2023/07/03 08:21:45;;;;;;;12.75;3.00;;;23.00;82.20;;;;;;5109616;28;20103;-49
2023/07/03 08:24:11;;;;;;;11.75;2.83;;;22.70;83.90;;;;;;5107609;28;20035;-44
2023/07/03 08:26:37;;;;;;;11.15;3.67;;;22.40;84.50;;;;;;5116456;27;20031;-47
2023/07/03 08:29:02;;;;;;;11.30;3.28;;;22.00;84.80;;;;;;5126739;27;20028;-44
2023/07/03 08:31:28;;;;;;;6.32;2.92;;;21.70;86.00;;;;;;5112254;28;20024;-49
2023/07/03 08:33:55;;;;;;;7.55;2.67;;;21.50;86.80;;;;;;5112093;28;20399;-41
2023/07/03 08:36:21;;;;;;;9.43;2.92;;;21.20;86.50;;;;;;5111242;28;20555;-47
2023/07/03 08:38:46;;;;;;;7.43;3.40;;;20.80;87.80;;;;;;5108915;28;20161;-48
2023/07/03 08:41:13;;;;;;;7.65;3.05;;;20.60;88.80;;;;;;5087482;28;20111;-48
2023/07/03 08:43:44;;;;;;;9.60;2.88;;;20.60;89.60;;;;;;5091661;28;20028;-46
2023/07/03 08:46:14;;;;;;;10.48;2.70;;;20.60;89.60;;;;;;5090811;28;20032;-46
2023/07/03 08:48:41;;;;;;;10.35;3.13;;;20.70;90.00;;;;;;5091090;28;20025;-47
2023/07/03 08:51:12;;;;;;;4.60;2.30;;;20.70;89.80;;;;;;5090757;28;20566;-44
2023/07/03 08:53:41;;;;;;;9.43;2.80;;;20.70;89.70;;;;;;5091626;28;20024;-46
2023/07/03 08:56:17;;;;;;;10.10;3.15;;;20.80;90.20;;;;;;5090633;28;20024;-46
2023/07/03 08:58:44;;;;;;;7.57;3.00;;;20.90;89.80;;;;;;5091283;28;20024;-44
2023/07/03 09:01:20;;;;;;;12.10;4.07;;;21.00;89.90;;;;;;5091771;28;20032;-49
2023/07/03 09:04:29;;;;;;;12.23;3.22;;;21.00;89.20;;;;;;5097885;28;20026;-44
2023/07/03 09:06:58;;;;;;;9.52;3.58;;;20.90;89.60;;;;;;5100500;28;20035;-44
2023/07/03 09:09:41;;;;;;;8.00;3.13;;;20.80;89.60;;;;;;5111415;28;20015;-43
2023/07/03 09:12:32;;;;;;;7.18;3.20;;;20.80;90.40;;;;;;5101113;28;20020;-45
2023/07/03 09:15:26;;;;;;;9.13;3.53;;;20.70;90.30;;;;;;5111172;28;20421;-49
2023/07/03 09:17:53;;;;;;;9.63;3.13;;;20.80;90.50;;;;;;5088206;28;20031;-47
2023/07/03 09:20:22;;;;;;;12.35;3.30;;;20.90;90.30;;;;;;5110745;28;20019;-49
2023/07/03 09:23:09;;;;;;;9.38;2.78;;;21.00;90.00;;;;;;5111105;28;20038;-47
2023/07/03 09:25:51;;;;;;;7.70;3.10;;;21.10;89.70;;;;;;5127273;28;20491;-44
2023/07/03 09:28:17;;;;;;;10.20;2.88;;;21.10;89.50;;;;;;5090948;28;20035;-44
2023/07/03 09:30:43;;;;;;;9.95;3.72;;;21.30;90.10;;;;;;5083058;28;20027;-45
2023/07/03 09:33:09;;;;;;;10.48;2.90;;;21.40;89.40;;;;;;5106469;28;20019;-44
2023/07/03 09:35:42;;;;;;;6.70;2.88;;;21.80;88.30;;;;;;5110424;28;20102;-44
2023/07/03 09:38:17;;;;;;;8.18;2.92;;;21.80;88.20;;;;;;5110441;28;20020;-44
2023/07/03 09:40:47;;;;;;;9.27;3.25;;;22.00;88.30;;;;;;5111559;28;20107;-45
2023/07/03 09:43:27;;;;;;;6.68;3.20;;;22.40;88.10;;;;;;5107556;28;20290;-42
2023/07/03 09:46:09;;;;;;;13.43;3.20;;;22.80;87.00;;;;;;5110825;28;20028;-43
2023/07/03 09:48:36;;;;;;;7.57;2.60;;;23.20;87.50;;;;;;5110756;28;20024;-50
2023/07/03 09:51:24;;;;;;;5.82;2.58;;;23.50;85.30;;;;;;5110599;28;20028;-50
2023/07/03 09:53:50;;;;;;;6.82;3.95;;;23.50;85.60;;;;;;5110914;28;20016;-48
2023/07/03 09:56:20;;;;;;;12.10;7.25;;;23.10;85.30;;;;;;5110375;28;20104;-49
2023/07/03 09:58:50;;;;;;;7.93;3.03;;;22.80;86.70;;;;;;5111262;28;20030;-51
2023/07/03 10:01:20;;;;;;;6.00;2.97;;;22.30;86.30;;;;;;5111560;28;20134;-48
2023/07/03 10:03:45;;;;;;;11.70;3.88;;;21.90;87.80;;;;;;5096251;28;20024;-48
2023/07/03 10:06:14;;;;;;;8.25;3.30;;;21.60;89.40;;;;;;5083936;28;20084;-45
2023/07/03 10:08:51;;;;;;;8.65;3.83;;;21.50;90.20;;;;;;5086172;28;20016;-44
2023/07/03 10:11:29;;;;;;;33.10;4.30;;;21.40;90.50;;;;;;5104513;28;20024;-48
2023/07/03 10:13:55;;;;;;;7.43;3.45;;;21.30;90.50;;;;;;5112763;28;20181;-47
2023/07/03 10:16:23;;;;;;;10.77;3.72;;;21.10;90.80;;;;;;5112962;28;20511;-47
2023/07/03 10:18:52;;;;;;;8.85;3.22;;;21.10;91.40;;;;;;5113738;28;20078;-51
2023/07/03 10:21:20;;;;;;;4.75;2.53;;;21.00;90.70;;;;;;5114136;28;20403;-53
2023/07/03 10:23:47;;;;;;;7.70;3.22;;;21.00;90.30;;;;;;5114345;28;20251;-48
2023/07/03 10:26:33;;;;;;;7.13;3.35;;;21.00;90.70;;;;;;5095389;28;20019;-46
2023/07/03 10:29:19;;;;;;;8.60;3.33;;;21.20;91.20;;;;;;5115832;28;20027;-51
2023/07/03 10:31:50;;;;;;;6.32;3.00;;;21.40;90.70;;;;;;5114810;28;20364;-47
2023/07/03 10:34:29;;;;;;;9.75;3.03;;;21.50;90.60;;;;;;5114804;28;20483;-50
2023/07/03 10:37:00;;;;;;;5.53;3.03;;;21.50;90.70;;;;;;5113963;28;20024;-46
2023/07/03 10:39:51;;;;;;;13.40;2.55;;;21.30;90.20;;;;;;5114196;28;20019;-46
2023/07/03 10:42:41;;;;;;;9.57;3.45;;;21.40;91.10;;;;;;5099933;28;20032;-49
2023/07/03 10:45:11;;;;;;;4.85;2.47;;;21.70;91.50;;;;;;5113783;28;20019;-50
2023/07/03 10:47:57;;;;;;;8.07;2.65;;;22.00;91.40;;;;;;5113748;28;20143;-50
2023/07/03 10:50:34;;;;;;;8.15;3.13;;;22.20;90.80;;;;;;5096599;28;20092;-48
2023/07/03 10:53:05;;;;;;;10.38;2.60;;;22.30;91.10;;;;;;5094957;28;20019;-49
2023/07/03 10:55:40;;;;;;;12.63;3.42;;;22.30;90.80;;;;;;5113197;28;20016;-49
2023/07/03 10:58:12;;;;;;;5.95;2.30;;;22.20;91.20;;;;;;5114083;28;20020;-53
2023/07/03 11:01:02;;;;;;;6.60;2.60;;;22.10;90.60;;;;;;5113977;28;20020;-47
2023/07/03 11:04:06;;;;;;;6.65;3.58;;;22.00;89.70;;;;;;5113821;28;20020;-47
2023/07/03 11:06:39;;;;;;;8.23;2.50;;;22.10;89.50;;;;;;5113275;28;20035;-54
2023/07/03 11:09:30;;;;;;;10.45;3.55;;;22.30;90.20;;;;;;5114362;28;20558;-50
2023/07/03 11:12:23;;;;;;;10.55;5.05;;;22.40;88.20;;;;;;5110484;28;20042;-54
2023/07/03 11:15:13;;;;;;;7.38;2.60;;;22.40;88.00;;;;;;5100187;28;20027;-48
2023/07/03 11:18:04;;;;;;;9.07;3.00;;;22.40;88.60;;;;;;5111749;28;20028;-50
2023/07/03 11:20:55;;;;;;;10.07;2.70;;;22.30;88.80;;;;;;5112695;28;20475;-48
2023/07/03 11:24:02;;;;;;;8.50;2.53;;;22.00;89.90;;;;;;5095076;28;20126;-47
2023/07/03 11:26:45;;;;;;;13.50;4.22;;;21.90;90.20;;;;;;5080067;28;20555;-47
2023/07/03 11:29:11;;;;;;;5.50;2.22;;;21.90;90.70;;;;;;5113584;28;20505;-47
2023/07/03 11:31:41;;;;;;;7.80;3.10;;;21.90;90.30;;;;;;5094915;28;20024;-51
2023/07/03 11:34:09;;;;;;;4.53;2.65;;;21.90;90.30;;;;;;5094682;28;20365;-49
2023/07/03 11:36:34;;;;;;;7.72;2.92;;;21.90;89.90;;;;;;5112184;28;20471;-46
2023/07/03 11:39:19;;;;;;;6.90;3.33;;;21.80;90.00;;;;;;5113010;28;20035;-46
2023/07/03 11:42:11;;;;;;;6.67;2.83;;;21.90;90.20;;;;;;5113536;28;20027;-46
2023/07/03 11:44:57;;;;;;;6.00;3.05;;;22.20;90.00;;;;;;5104084;28;20047;-50
2023/07/03 11:47:25;;;;;;;8.98;2.97;;;22.30;88.80;;;;;;5112354;28;20027;-52
2023/07/03 11:49:59;;;;;;;6.28;2.40;;;22.60;88.30;;;;;;5104543;28;20398;-48
2023/07/03 11:52:33;;;;;;;7.78;3.53;;;22.70;86.00;;;;;;5112730;28;20532;-50
2023/07/03 11:55:14;;;;;;;17.80;3.33;;;22.60;86.40;;;;;;5111347;28;20027;-49
2023/07/03 11:57:44;;;;;;;17.80;3.38;;;22.50;87.20;;;;;;5112647;28;20024;-52
2023/07/03 12:00:20;;;;;;;7.93;2.60;;;22.50;87.30;;;;;;5112544;28;20027;-48
2023/07/03 12:02:48;;;;;;;7.05;2.65;;;22.50;88.10;;;;;;5112679;28;20069;-46
2023/07/03 12:05:41;;;;;;;4.95;2.38;;;22.40;87.90;;;;;;5111859;28;20020;-44
2023/07/03 12:08:30;;;;;;;12.68;3.17;;;22.40;88.20;;;;;;5112560;28;20519;-47
2023/07/03 12:10:58;;;;;;;7.85;2.85;;;22.40;88.60;;;;;;5098555;28;20027;-48
2023/07/03 12:13:39;;;;;;;12.27;3.28;;;22.30;87.80;;;;;;5113681;28;20075;-51
2023/07/03 12:16:26;;;;;;;6.07;2.70;;;22.50;87.50;;;;;;5111924;28;20019;-47
2023/07/03 12:19:01;;;;;;;5.40;2.47;;;22.70;87.90;;;;;;5111164;28;20130;-46
2023/07/03 12:21:38;;;;;;;;;;;22.90;86.10;;;;;;5104781;28;20031;-46
2023/07/03 12:24:18;;;;;;;6.43;2.90;;;22.80;85.80;;;;;;5105201;28;19931;-47
2023/07/03 12:27:00;;;;;;;6.55;2.97;;;22.80;86.30;;;;;;5110113;28;20052;-47
2023/07/03 12:29:28;;;;;;;9.68;3.90;;;22.90;86.80;;;;;;5112225;28;20020;-49
2023/07/03 12:32:08;;;;;;;7.65;3.03;;;22.90;86.90;;;;;;5085777;28;20031;-51
2023/07/03 12:34:36;;;;;;;10.18;2.83;;;22.80;86.30;;;;;;5112072;28;20148;-49
2023/07/03 12:37:07;;;;;;;5.93;3.05;;;22.70;86.20;;;;;;5111740;28;20046;-47
2023/07/03 12:39:33;;;;;;;4.78;2.75;;;22.70;87.00;;;;;;5112328;28;20395;-48
2023/07/03 12:42:10;;;;;;;5.97;2.78;;;22.60;87.20;;;;;;5094077;28;20019;-50
2023/07/03 12:44:35;;;;;;;5.43;2.75;;;22.60;87.30;;;;;;5111705;28;20095;-50
2023/07/03 12:47:13;;;;;;;6.50;2.45;;;22.70;86.50;;;;;;5111544;28;20028;-50
2023/07/03 12:49:55;;;;;;;5.05;2.63;;;22.60;86.20;;;;;;5112265;28;20020;-49